KTOL

Toledo Express Airport

Toledo, Ohio, USA
KTOL 141724Z 1418/1518 VRB03KT P6SM BKN015 BKN060 TEMPO 1418/1421 SCT015 BKN060 FM150200 02006KT P6SM SCT010 BKN025 FM150600 02005KT 3SM BR OVC009 FM151600 05010G18KT P6SM BKN020 OVC080
Issued Valid From Valid To
Dec-14 @ 17:24 UTC
(4 hours ago)
Dec-14 @ 18:00 UTC
(4 hours ago)
Dec-15 @ 18:00 UTC
(in 20 hours)
Dec-14 @ 18:00 to Dec-15 @ 02:00
KTOL 141724Z 1418/1518 VRB03KT P6SM BKN015 BKN060
Wind Visibility Clouds
Variable at 3 knots Greater than 6 miles
  • Broken at 1,500' AGL
  • Broken at 6,000' AGL
Expired Click to View Dec-14 @ 18:00 to Dec-14 @ 21:00
TEMPO 1418/1421 SCT015 BKN060
Clouds
  • Scattered at 1,500' AGL
  • Broken at 6,000' AGL
From Dec-15 @ 02:00 to Dec-15 @ 06:00
FM150200 02006KT P6SM SCT010 BKN025
Wind Visibility Clouds
20° at 6 knots Greater than 6 miles
  • Scattered at 1,000' AGL
  • Broken at 2,500' AGL
From Dec-15 @ 06:00 to Dec-15 @ 16:00
FM150600 02005KT 3SM BR OVC009
Wind Visibility Clouds Conditions
20° at 5 knots 3 miles
  • Overcast at 900' AGL
  • Mist
From Dec-15 @ 16:00 to Dec-15 @ 18:00
FM151600 05010G18KT P6SM BKN020 OVC080
Wind Visibility Clouds
50° at 10 knots
 Gusting to 18 knots
Greater than 6 miles
  • Broken at 2,000' AGL
  • Overcast at 8,000' AGL
KTOL 141724Z 1418/1518 VRB03KT P6SM BKN015 BKN060 TEMPO 1418/1421 SCT015 BKN060 FM150200 02006KT P6SM SCT010 BKN025 FM150600 02005KT 3SM BR OVC009 FM151600 05010G18KT P6SM BKN020 OVC080
Issued Dec-14 @ 17:24 UTC
(4 hours ago)
Valid From Dec-14 @ 18:00 UTC
(4 hours ago)
Valid To Dec-15 @ 18:00 UTC
(in 20 hours)
Dec-14 @ 18:00 - Dec-15 @ 02:00
Wind Visibility
Variable at 3 knots Greater than 6 miles
Clouds
  • Broken at 1,500' AGL
  • Broken at 6,000' AGL
Dec-14 @ 18:00 - Dec-14 @ 21:00
Clouds
  • Scattered at 1,500' AGL
  • Broken at 6,000' AGL
From Dec-15 @ 02:00 - Dec-15 @ 06:00
Wind Visibility
20° at 6 knots Greater than 6 miles
Clouds
  • Scattered at 1,000' AGL
  • Broken at 2,500' AGL
From Dec-15 @ 06:00 - Dec-15 @ 16:00
Wind Visibility
20° at 5 knots 3 miles
Clouds
  • Overcast at 900' AGL
Conditions
  • Mist
From Dec-15 @ 16:00 - Dec-15 @ 18:00
Wind Visibility
50° at 10 knots
 Gusting to 18 knots
Greater than 6 miles
Clouds
  • Broken at 2,000' AGL
  • Overcast at 8,000' AGL